sensor_id;sensor_type;location;lat;lon;timestamp;P1;durP1;ratioP1;P2;durP2;ratioP2
23270;SDS011;11804;51.118;17.058;2023-06-10T00:02:23;16.70;;;11.90;;
23270;SDS011;11804;51.118;17.058;2023-06-10T00:04:53;14.70;;;10.90;;
23270;SDS011;11804;51.118;17.058;2023-06-10T00:07:21;15.20;;;10.72;;
23270;SDS011;11804;51.118;17.058;2023-06-10T00:09:48;16.87;;;11.05;;
23270;SDS011;11804;51.118;17.058;2023-06-10T00:12:17;18.82;;;11.60;;
23270;SDS011;11804;51.118;17.058;2023-06-10T00:14:46;18.50;;;11.45;;
23270;SDS011;11804;51.118;17.058;2023-06-10T00:17:15;17.27;;;10.80;;
23270;SDS011;11804;51.118;17.058;2023-06-10T00:19:43;17.87;;;11.00;;
23270;SDS011;11804;51.118;17.058;2023-06-10T00:22:12;16.57;;;10.55;;
23270;SDS011;11804;51.118;17.058;2023-06-10T00:24:40;15.83;;;10.78;;
23270;SDS011;11804;51.118;17.058;2023-06-10T00:27:08;16.45;;;11.60;;
23270;SDS011;11804;51.118;17.058;2023-06-10T00:29:35;15.43;;;10.80;;
23270;SDS011;11804;51.118;17.058;2023-06-10T00:32:05;18.48;;;10.58;;
23270;SDS011;11804;51.118;17.058;2023-06-10T00:34:33;16.32;;;10.90;;
23270;SDS011;11804;51.118;17.058;2023-06-10T00:37:01;17.30;;;11.28;;
23270;SDS011;11804;51.118;17.058;2023-06-10T00:39:29;16.23;;;10.98;;
23270;SDS011;11804;51.118;17.058;2023-06-10T00:41:56;16.17;;;10.60;;
23270;SDS011;11804;51.118;17.058;2023-06-10T00:44:24;16.42;;;10.40;;
23270;SDS011;11804;51.118;17.058;2023-06-10T00:46:51;17.77;;;11.60;;
23270;SDS011;11804;51.118;17.058;2023-06-10T00:49:21;16.62;;;10.95;;
23270;SDS011;11804;51.118;17.058;2023-06-10T00:51:49;15.60;;;10.50;;
23270;SDS011;11804;51.118;17.058;2023-06-10T00:54:18;16.90;;;10.95;;
23270;SDS011;11804;51.118;17.058;2023-06-10T00:56:47;15.43;;;10.48;;
23270;SDS011;11804;51.118;17.058;2023-06-10T00:59:16;16.95;;;10.85;;
23270;SDS011;11804;51.118;17.058;2023-06-10T01:01:44;15.45;;;10.20;;
23270;SDS011;11804;51.118;17.058;2023-06-10T01:04:14;16.62;;;11.18;;
23270;SDS011;11804;51.118;17.058;2023-06-10T01:09:50;16.45;;;11.30;;
23270;SDS011;11804;51.118;17.058;2023-06-10T01:15:16;15.03;;;10.15;;
23270;SDS011;11804;51.118;17.058;2023-06-10T01:17:55;16.87;;;10.55;;
23270;SDS011;11804;51.118;17.058;2023-06-10T01:20:28;16.02;;;10.72;;
23270;SDS011;11804;51.118;17.058;2023-06-10T01:22:58;15.65;;;10.45;;
23270;SDS011;11804;51.118;17.058;2023-06-10T01:25:27;15.03;;;10.32;;
23270;SDS011;11804;51.118;17.058;2023-06-10T01:28:10;14.83;;;10.35;;
23270;SDS011;11804;51.118;17.058;2023-06-10T01:33:28;14.87;;;10.20;;
23270;SDS011;11804;51.118;17.058;2023-06-10T01:35:52;15.43;;;10.18;;
23270;SDS011;11804;51.118;17.058;2023-06-10T01:38:22;14.80;;;10.18;;
23270;SDS011;11804;51.118;17.058;2023-06-10T01:40:53;17.02;;;11.33;;
23270;SDS011;11804;51.118;17.058;2023-06-10T01:43:22;16.52;;;10.18;;
23270;SDS011;11804;51.118;17.058;2023-06-10T01:45:50;13.90;;;9.85;;
23270;SDS011;11804;51.118;17.058;2023-06-10T01:48:18;14.85;;;9.83;;
23270;SDS011;11804;51.118;17.058;2023-06-10T01:50:45;14.63;;;10.18;;
23270;SDS011;11804;51.118;17.058;2023-06-10T01:53:13;13.68;;;9.58;;
23270;SDS011;11804;51.118;17.058;2023-06-10T01:55:40;14.98;;;10.18;;
23270;SDS011;11804;51.118;17.058;2023-06-10T01:58:08;12.85;;;9.38;;
23270;SDS011;11804;51.118;17.058;2023-06-10T02:00:36;12.95;;;9.68;;
23270;SDS011;11804;51.118;17.058;2023-06-10T02:03:03;14.75;;;10.38;;
23270;SDS011;11804;51.118;17.058;2023-06-10T02:05:31;12.43;;;8.80;;
23270;SDS011;11804;51.118;17.058;2023-06-10T02:07:58;10.93;;;8.05;;
23270;SDS011;11804;51.118;17.058;2023-06-10T02:10:27;14.65;;;9.93;;
23270;SDS011;11804;51.118;17.058;2023-06-10T02:12:54;14.25;;;9.68;;
23270;SDS011;11804;51.118;17.058;2023-06-10T02:15:22;12.65;;;8.73;;
23270;SDS011;11804;51.118;17.058;2023-06-10T02:17:51;12.70;;;8.73;;
23270;SDS011;11804;51.118;17.058;2023-06-10T02:20:20;10.98;;;7.92;;
23270;SDS011;11804;51.118;17.058;2023-06-10T02:22:48;13.35;;;8.28;;
23270;SDS011;11804;51.118;17.058;2023-06-10T02:25:16;12.15;;;8.43;;
23270;SDS011;11804;51.118;17.058;2023-06-10T02:27:43;13.28;;;9.05;;
23270;SDS011;11804;51.118;17.058;2023-06-10T02:30:11;12.07;;;8.48;;
23270;SDS011;11804;51.118;17.058;2023-06-10T02:32:40;14.83;;;8.65;;
23270;SDS011;11804;51.118;17.058;2023-06-10T02:35:07;12.93;;;8.65;;
23270;SDS011;11804;51.118;17.058;2023-06-10T02:37:37;12.58;;;8.55;;
23270;SDS011;11804;51.118;17.058;2023-06-10T02:40:05;11.68;;;8.18;;
23270;SDS011;11804;51.118;17.058;2023-06-10T02:42:34;13.40;;;8.85;;
23270;SDS011;11804;51.118;17.058;2023-06-10T02:45:02;11.28;;;8.55;;
23270;SDS011;11804;51.118;17.058;2023-06-10T02:47:30;10.58;;;8.23;;
23270;SDS011;11804;51.118;17.058;2023-06-10T02:49:58;12.95;;;8.48;;
23270;SDS011;11804;51.118;17.058;2023-06-10T02:52:26;11.38;;;8.28;;
23270;SDS011;11804;51.118;17.058;2023-06-10T02:54:54;12.68;;;8.03;;
23270;SDS011;11804;51.118;17.058;2023-06-10T02:57:22;12.15;;;8.75;;
23270;SDS011;11804;51.118;17.058;2023-06-10T02:59:49;11.95;;;8.83;;
23270;SDS011;11804;51.118;17.058;2023-06-10T03:02:18;13.25;;;8.75;;
23270;SDS011;11804;51.118;17.058;2023-06-10T03:04:47;12.70;;;8.15;;
23270;SDS011;11804;51.118;17.058;2023-06-10T03:07:16;13.22;;;8.43;;
23270;SDS011;11804;51.118;17.058;2023-06-10T03:09:44;11.33;;;8.13;;
23270;SDS011;11804;51.118;17.058;2023-06-10T03:12:12;12.30;;;8.05;;
23270;SDS011;11804;51.118;17.058;2023-06-10T03:14:39;13.40;;;9.25;;
23270;SDS011;11804;51.118;17.058;2023-06-10T03:17:07;12.65;;;9.00;;
23270;SDS011;11804;51.118;17.058;2023-06-10T03:19:35;12.90;;;8.83;;
23270;SDS011;11804;51.118;17.058;2023-06-10T03:22:10;13.78;;;9.00;;
23270;SDS011;11804;51.118;17.058;2023-06-10T03:24:39;13.25;;;9.25;;
23270;SDS011;11804;51.118;17.058;2023-06-10T03:27:07;13.95;;;8.90;;
23270;SDS011;11804;51.118;17.058;2023-06-10T03:29:36;13.55;;;8.60;;
23270;SDS011;11804;51.118;17.058;2023-06-10T03:32:04;13.30;;;8.88;;
23270;SDS011;11804;51.118;17.058;2023-06-10T03:34:33;13.40;;;8.93;;
23270;SDS011;11804;51.118;17.058;2023-06-10T03:37:00;13.58;;;8.93;;
23270;SDS011;11804;51.118;17.058;2023-06-10T03:39:28;14.15;;;8.90;;
23270;SDS011;11804;51.118;17.058;2023-06-10T03:41:56;11.73;;;8.53;;
23270;SDS011;11804;51.118;17.058;2023-06-10T03:44:24;12.47;;;8.85;;
23270;SDS011;11804;51.118;17.058;2023-06-10T03:46:52;13.78;;;9.40;;
23270;SDS011;11804;51.118;17.058;2023-06-10T03:49:20;12.43;;;9.20;;
23270;SDS011;11804;51.118;17.058;2023-06-10T03:51:49;11.68;;;8.05;;
23270;SDS011;11804;51.118;17.058;2023-06-10T03:54:17;14.80;;;10.20;;
23270;SDS011;11804;51.118;17.058;2023-06-10T03:56:44;11.97;;;8.65;;
23270;SDS011;11804;51.118;17.058;2023-06-10T03:59:14;11.55;;;8.55;;
23270;SDS011;11804;51.118;17.058;2023-06-10T04:01:41;11.68;;;8.88;;
23270;SDS011;11804;51.118;17.058;2023-06-10T04:04:09;12.40;;;9.08;;
23270;SDS011;11804;51.118;17.058;2023-06-10T04:06:38;12.35;;;8.68;;
23270;SDS011;11804;51.118;17.058;2023-06-10T04:09:07;12.90;;;8.80;;
23270;SDS011;11804;51.118;17.058;2023-06-10T04:11:35;15.75;;;9.10;;
23270;SDS011;11804;51.118;17.058;2023-06-10T04:14:03;11.95;;;8.63;;
23270;SDS011;11804;51.118;17.058;2023-06-10T04:16:31;12.33;;;8.90;;
23270;SDS011;11804;51.118;17.058;2023-06-10T04:18:59;13.88;;;8.60;;
23270;SDS011;11804;51.118;17.058;2023-06-10T04:21:27;11.65;;;8.50;;
23270;SDS011;11804;51.118;17.058;2023-06-10T04:23:54;12.20;;;8.85;;
23270;SDS011;11804;51.118;17.058;2023-06-10T04:26:22;14.38;;;8.85;;
23270;SDS011;11804;51.118;17.058;2023-06-10T04:28:51;13.00;;;9.28;;
23270;SDS011;11804;51.118;17.058;2023-06-10T04:31:19;12.03;;;8.38;;
23270;SDS011;11804;51.118;17.058;2023-06-10T04:33:46;10.90;;;7.78;;
23270;SDS011;11804;51.118;17.058;2023-06-10T04:36:14;13.22;;;8.90;;
23270;SDS011;11804;51.118;17.058;2023-06-10T04:38:41;13.18;;;9.15;;
23270;SDS011;11804;51.118;17.058;2023-06-10T04:41:09;12.05;;;8.60;;
23270;SDS011;11804;51.118;17.058;2023-06-10T04:43:36;13.40;;;9.83;;
23270;SDS011;11804;51.118;17.058;2023-06-10T04:46:04;15.10;;;9.40;;
23270;SDS011;11804;51.118;17.058;2023-06-10T04:48:32;12.70;;;9.50;;
23270;SDS011;11804;51.118;17.058;2023-06-10T04:51:01;13.58;;;9.35;;
23270;SDS011;11804;51.118;17.058;2023-06-10T04:53:29;13.25;;;9.03;;
23270;SDS011;11804;51.118;17.058;2023-06-10T04:55:57;13.00;;;8.48;;
23270;SDS011;11804;51.118;17.058;2023-06-10T04:58:25;14.05;;;9.63;;
23270;SDS011;11804;51.118;17.058;2023-06-10T05:00:52;13.50;;;9.45;;
23270;SDS011;11804;51.118;17.058;2023-06-10T05:03:20;13.70;;;9.33;;
23270;SDS011;11804;51.118;17.058;2023-06-10T05:05:48;14.70;;;10.35;;
23270;SDS011;11804;51.118;17.058;2023-06-10T05:08:15;15.88;;;9.70;;
23270;SDS011;11804;51.118;17.058;2023-06-10T05:10:43;15.13;;;10.38;;
23270;SDS011;11804;51.118;17.058;2023-06-10T05:13:10;13.68;;;9.75;;
23270;SDS011;11804;51.118;17.058;2023-06-10T05:15:38;12.37;;;9.33;;
23270;SDS011;11804;51.118;17.058;2023-06-10T05:18:07;14.10;;;10.05;;
23270;SDS011;11804;51.118;17.058;2023-06-10T05:20:37;11.88;;;9.35;;
23270;SDS011;11804;51.118;17.058;2023-06-10T05:23:04;12.15;;;9.10;;
23270;SDS011;11804;51.118;17.058;2023-06-10T05:25:32;13.78;;;9.68;;
23270;SDS011;11804;51.118;17.058;2023-06-10T05:28:00;13.58;;;9.10;;
23270;SDS011;11804;51.118;17.058;2023-06-10T05:30:28;13.80;;;9.85;;
23270;SDS011;11804;51.118;17.058;2023-06-10T05:32:56;11.40;;;9.05;;
23270;SDS011;11804;51.118;17.058;2023-06-10T05:35:24;13.50;;;9.95;;
23270;SDS011;11804;51.118;17.058;2023-06-10T05:37:52;12.45;;;9.20;;
23270;SDS011;11804;51.118;17.058;2023-06-10T05:40:19;14.75;;;9.38;;
23270;SDS011;11804;51.118;17.058;2023-06-10T05:42:47;15.30;;;10.32;;
23270;SDS011;11804;51.118;17.058;2023-06-10T05:45:15;14.78;;;9.88;;
23270;SDS011;11804;51.118;17.058;2023-06-10T05:47:42;15.40;;;10.50;;
23270;SDS011;11804;51.118;17.058;2023-06-10T05:50:10;12.95;;;9.53;;
23270;SDS011;11804;51.118;17.058;2023-06-10T05:52:37;12.07;;;9.33;;
23270;SDS011;11804;51.118;17.058;2023-06-10T05:55:06;15.65;;;9.55;;
23270;SDS011;11804;51.118;17.058;2023-06-10T05:57:34;12.73;;;8.73;;
23270;SDS011;11804;51.118;17.058;2023-06-10T06:00:02;10.70;;;8.33;;
23270;SDS011;11804;51.118;17.058;2023-06-10T06:02:30;11.00;;;8.48;;
23270;SDS011;11804;51.118;17.058;2023-06-10T06:04:58;11.28;;;9.03;;
23270;SDS011;11804;51.118;17.058;2023-06-10T06:07:26;12.82;;;9.63;;
23270;SDS011;11804;51.118;17.058;2023-06-10T06:09:53;13.83;;;9.98;;
23270;SDS011;11804;51.118;17.058;2023-06-10T06:12:21;13.32;;;10.05;;
23270;SDS011;11804;51.118;17.058;2023-06-10T06:14:49;11.18;;;9.10;;
23270;SDS011;11804;51.118;17.058;2023-06-10T06:17:16;13.43;;;9.98;;
23270;SDS011;11804;51.118;17.058;2023-06-10T06:19:44;11.70;;;9.20;;
23270;SDS011;11804;51.118;17.058;2023-06-10T06:22:13;12.90;;;9.23;;
23270;SDS011;11804;51.118;17.058;2023-06-10T06:24:43;12.63;;;9.48;;
23270;SDS011;11804;51.118;17.058;2023-06-10T06:27:10;13.22;;;9.50;;
23270;SDS011;11804;51.118;17.058;2023-06-10T06:29:38;13.03;;;9.68;;
23270;SDS011;11804;51.118;17.058;2023-06-10T06:32:06;13.58;;;10.05;;
23270;SDS011;11804;51.118;17.058;2023-06-10T06:34:34;13.43;;;9.48;;
23270;SDS011;11804;51.118;17.058;2023-06-10T06:37:02;14.58;;;9.70;;
23270;SDS011;11804;51.118;17.058;2023-06-10T06:39:30;13.08;;;9.18;;
23270;SDS011;11804;51.118;17.058;2023-06-10T06:41:57;12.93;;;9.90;;
23270;SDS011;11804;51.118;17.058;2023-06-10T06:44:25;15.10;;;9.90;;
23270;SDS011;11804;51.118;17.058;2023-06-10T06:46:53;14.87;;;9.53;;
23270;SDS011;11804;51.118;17.058;2023-06-10T06:49:20;12.82;;;9.23;;
23270;SDS011;11804;51.118;17.058;2023-06-10T06:51:48;13.30;;;9.55;;
23270;SDS011;11804;51.118;17.058;2023-06-10T06:54:15;14.38;;;10.18;;
23270;SDS011;11804;51.118;17.058;2023-06-10T06:56:43;16.52;;;10.08;;
23270;SDS011;11804;51.118;17.058;2023-06-10T06:59:10;12.75;;;9.48;;
23270;SDS011;11804;51.118;17.058;2023-06-10T07:01:39;13.13;;;9.98;;
23270;SDS011;11804;51.118;17.058;2023-06-10T07:04:07;13.20;;;9.65;;
23270;SDS011;11804;51.118;17.058;2023-06-10T07:06:35;13.15;;;9.90;;
23270;SDS011;11804;51.118;17.058;2023-06-10T07:09:04;11.63;;;8.88;;
23270;SDS011;11804;51.118;17.058;2023-06-10T07:11:32;13.45;;;9.70;;
23270;SDS011;11804;51.118;17.058;2023-06-10T07:14:00;11.78;;;9.55;;
23270;SDS011;11804;51.118;17.058;2023-06-10T07:16:27;14.83;;;10.50;;
23270;SDS011;11804;51.118;17.058;2023-06-10T07:18:55;12.60;;;9.53;;
23270;SDS011;11804;51.118;17.058;2023-06-10T07:21:22;12.37;;;9.58;;
23270;SDS011;11804;51.118;17.058;2023-06-10T07:23:50;12.55;;;9.50;;
23270;SDS011;11804;51.118;17.058;2023-06-10T07:26:19;12.40;;;9.68;;
23270;SDS011;11804;51.118;17.058;2023-06-10T07:28:48;11.48;;;8.80;;
23270;SDS011;11804;51.118;17.058;2023-06-10T07:31:16;13.40;;;9.53;;
23270;SDS011;11804;51.118;17.058;2023-06-10T07:33:43;12.25;;;9.10;;
23270;SDS011;11804;51.118;17.058;2023-06-10T07:36:11;14.10;;;9.60;;
23270;SDS011;11804;51.118;17.058;2023-06-10T07:38:38;12.15;;;8.98;;
23270;SDS011;11804;51.118;17.058;2023-06-10T07:41:08;12.07;;;9.15;;
23270;SDS011;11804;51.118;17.058;2023-06-10T07:43:38;12.85;;;9.10;;
23270;SDS011;11804;51.118;17.058;2023-06-10T07:46:06;11.63;;;9.33;;
23270;SDS011;11804;51.118;17.058;2023-06-10T07:48:33;11.43;;;8.90;;
23270;SDS011;11804;51.118;17.058;2023-06-10T07:51:01;12.15;;;9.18;;
23270;SDS011;11804;51.118;17.058;2023-06-10T07:53:28;10.45;;;7.72;;
23270;SDS011;11804;51.118;17.058;2023-06-10T07:55:56;11.28;;;8.70;;
23270;SDS011;11804;51.118;17.058;2023-06-10T07:58:23;10.05;;;8.38;;
23270;SDS011;11804;51.118;17.058;2023-06-10T08:00:51;11.65;;;8.35;;
23270;SDS011;11804;51.118;17.058;2023-06-10T08:03:18;10.03;;;8.10;;
23270;SDS011;11804;51.118;17.058;2023-06-10T08:05:46;10.35;;;7.85;;
23270;SDS011;11804;51.118;17.058;2023-06-10T08:08:14;9.83;;;7.15;;
23270;SDS011;11804;51.118;17.058;2023-06-10T08:10:42;10.53;;;8.55;;
23270;SDS011;11804;51.118;17.058;2023-06-10T08:13:09;10.15;;;7.08;;
23270;SDS011;11804;51.118;17.058;2023-06-10T08:15:37;11.15;;;7.62;;
23270;SDS011;11804;51.118;17.058;2023-06-10T08:18:05;9.13;;;7.65;;
23270;SDS011;11804;51.118;17.058;2023-06-10T08:20:32;9.68;;;7.10;;
23270;SDS011;11804;51.118;17.058;2023-06-10T08:23:00;9.03;;;6.95;;
23270;SDS011;11804;51.118;17.058;2023-06-10T08:25:27;7.03;;;6.17;;
23270;SDS011;11804;51.118;17.058;2023-06-10T08:27:55;9.90;;;5.42;;
23270;SDS011;11804;51.118;17.058;2023-06-10T08:30:23;10.45;;;5.72;;
23270;SDS011;11804;51.118;17.058;2023-06-10T08:32:51;5.75;;;5.10;;
23270;SDS011;11804;51.118;17.058;2023-06-10T08:35:18;6.92;;;5.15;;
23270;SDS011;11804;51.118;17.058;2023-06-10T08:37:46;7.72;;;5.28;;
23270;SDS011;11804;51.118;17.058;2023-06-10T08:40:14;6.45;;;5.08;;
23270;SDS011;11804;51.118;17.058;2023-06-10T08:45:29;8.30;;;5.15;;
23270;SDS011;11804;51.118;17.058;2023-06-10T08:47:57;5.92;;;5.28;;
23270;SDS011;11804;51.118;17.058;2023-06-10T08:50:27;7.22;;;6.12;;
23270;SDS011;11804;51.118;17.058;2023-06-10T08:52:57;6.95;;;5.35;;
23270;SDS011;11804;51.118;17.058;2023-06-10T08:58:08;6.00;;;5.40;;
23270;SDS011;11804;51.118;17.058;2023-06-10T09:00:37;6.05;;;5.45;;
23270;SDS011;11804;51.118;17.058;2023-06-10T09:03:05;5.17;;;4.67;;
23270;SDS011;11804;51.118;17.058;2023-06-10T09:05:34;7.20;;;5.90;;
23270;SDS011;11804;51.118;17.058;2023-06-10T09:08:02;5.95;;;5.35;;
23270;SDS011;11804;51.118;17.058;2023-06-10T09:10:32;6.50;;;5.22;;
23270;SDS011;11804;51.118;17.058;2023-06-10T09:13:00;7.03;;;5.58;;
23270;SDS011;11804;51.118;17.058;2023-06-10T09:15:28;4.80;;;4.25;;
23270;SDS011;11804;51.118;17.058;2023-06-10T09:17:55;4.70;;;3.50;;
23270;SDS011;11804;51.118;17.058;2023-06-10T09:20:23;4.47;;;3.85;;
23270;SDS011;11804;51.118;17.058;2023-06-10T09:22:51;5.97;;;4.67;;
23270;SDS011;11804;51.118;17.058;2023-06-10T09:25:19;4.83;;;3.72;;
23270;SDS011;11804;51.118;17.058;2023-06-10T09:27:51;4.83;;;3.72;;
23270;SDS011;11804;51.118;17.058;2023-06-10T09:30:24;5.22;;;4.28;;
23270;SDS011;11804;51.118;17.058;2023-06-10T09:32:54;6.28;;;5.37;;
23270;SDS011;11804;51.118;17.058;2023-06-10T09:35:28;6.72;;;5.45;;
23270;SDS011;11804;51.118;17.058;2023-06-10T09:37:58;6.65;;;5.75;;
23270;SDS011;11804;51.118;17.058;2023-06-10T09:40:23;6.47;;;5.42;;
23270;SDS011;11804;51.118;17.058;2023-06-10T09:42:57;5.70;;;5.15;;
23270;SDS011;11804;51.118;17.058;2023-06-10T09:45:21;6.12;;;5.53;;
23270;SDS011;11804;51.118;17.058;2023-06-10T09:47:53;5.58;;;5.00;;
23270;SDS011;11804;51.118;17.058;2023-06-10T09:50:21;5.78;;;5.17;;
23270;SDS011;11804;51.118;17.058;2023-06-10T09:52:50;7.85;;;5.58;;
23270;SDS011;11804;51.118;17.058;2023-06-10T09:55:18;9.38;;;6.12;;
23270;SDS011;11804;51.118;17.058;2023-06-10T09:57:48;6.90;;;6.20;;
23270;SDS011;11804;51.118;17.058;2023-06-10T10:00:16;8.08;;;7.03;;
23270;SDS011;11804;51.118;17.058;2023-06-10T10:02:53;7.40;;;6.50;;
23270;SDS011;11804;51.118;17.058;2023-06-10T10:05:21;8.23;;;6.70;;
23270;SDS011;11804;51.118;17.058;2023-06-10T10:07:49;9.65;;;8.13;;
23270;SDS011;11804;51.118;17.058;2023-06-10T10:10:19;8.23;;;7.28;;
23270;SDS011;11804;51.118;17.058;2023-06-10T10:12:48;8.53;;;6.75;;
23270;SDS011;11804;51.118;17.058;2023-06-10T10:15:17;9.50;;;7.53;;
23270;SDS011;11804;51.118;17.058;2023-06-10T10:17:47;7.67;;;6.80;;
23270;SDS011;11804;51.118;17.058;2023-06-10T10:20:20;9.40;;;7.25;;
23270;SDS011;11804;51.118;17.058;2023-06-10T10:22:54;8.58;;;7.15;;
23270;SDS011;11804;51.118;17.058;2023-06-10T10:25:24;8.13;;;6.58;;
23270;SDS011;11804;51.118;17.058;2023-06-10T10:28:34;7.37;;;6.05;;
23270;SDS011;11804;51.118;17.058;2023-06-10T10:30:49;7.58;;;5.92;;
23270;SDS011;11804;51.118;17.058;2023-06-10T10:33:27;7.60;;;6.67;;
23270;SDS011;11804;51.118;17.058;2023-06-10T10:35:51;6.67;;;5.97;;
23270;SDS011;11804;51.118;17.058;2023-06-10T10:38:19;6.08;;;5.42;;
23270;SDS011;11804;51.118;17.058;2023-06-10T10:40:49;7.10;;;5.67;;
23270;SDS011;11804;51.118;17.058;2023-06-10T10:43:18;6.45;;;5.60;;
23270;SDS011;11804;51.118;17.058;2023-06-10T10:45:46;8.13;;;5.92;;
23270;SDS011;11804;51.118;17.058;2023-06-10T10:48:33;6.12;;;5.53;;
23270;SDS011;11804;51.118;17.058;2023-06-10T10:51:03;7.53;;;6.03;;
23270;SDS011;11804;51.118;17.058;2023-06-10T10:53:30;6.10;;;5.25;;
23270;SDS011;11804;51.118;17.058;2023-06-10T10:56:07;5.62;;;5.00;;
23270;SDS011;11804;51.118;17.058;2023-06-10T10:59:01;6.97;;;5.60;;
23270;SDS011;11804;51.118;17.058;2023-06-10T11:01:39;5.53;;;4.92;;
23270;SDS011;11804;51.118;17.058;2023-06-10T11:04:11;7.15;;;5.12;;
23270;SDS011;11804;51.118;17.058;2023-06-10T11:06:39;6.20;;;5.47;;
23270;SDS011;11804;51.118;17.058;2023-06-10T11:09:27;5.45;;;4.87;;
23270;SDS011;11804;51.118;17.058;2023-06-10T11:11:58;6.65;;;5.20;;
23270;SDS011;11804;51.118;17.058;2023-06-10T11:14:26;7.28;;;5.87;;
23270;SDS011;11804;51.118;17.058;2023-06-10T11:17:00;6.17;;;4.17;;
23270;SDS011;11804;51.118;17.058;2023-06-10T11:19:35;5.35;;;4.85;;
23270;SDS011;11804;51.118;17.058;2023-06-10T11:22:06;6.42;;;4.60;;
23270;SDS011;11804;51.118;17.058;2023-06-10T11:24:35;4.95;;;3.70;;
23270;SDS011;11804;51.118;17.058;2023-06-10T11:27:20;4.95;;;3.60;;
23270;SDS011;11804;51.118;17.058;2023-06-10T11:29:57;4.78;;;3.87;;
23270;SDS011;11804;51.118;17.058;2023-06-10T11:32:29;4.78;;;4.12;;
23270;SDS011;11804;51.118;17.058;2023-06-10T11:34:58;5.85;;;4.10;;
23270;SDS011;11804;51.118;17.058;2023-06-10T11:37:29;5.47;;;4.40;;
23270;SDS011;11804;51.118;17.058;2023-06-10T11:39:57;5.72;;;4.30;;
23270;SDS011;11804;51.118;17.058;2023-06-10T11:42:26;7.03;;;4.37;;
23270;SDS011;11804;51.118;17.058;2023-06-10T11:44:54;4.37;;;3.70;;
23270;SDS011;11804;51.118;17.058;2023-06-10T11:47:22;5.62;;;4.20;;
23270;SDS011;11804;51.118;17.058;2023-06-10T11:49:56;4.97;;;4.08;;
23270;SDS011;11804;51.118;17.058;2023-06-10T11:52:28;5.55;;;4.22;;
23270;SDS011;11804;51.118;17.058;2023-06-10T11:54:58;5.47;;;4.33;;
23270;SDS011;11804;51.118;17.058;2023-06-10T11:57:26;7.20;;;4.20;;
23270;SDS011;11804;51.118;17.058;2023-06-10T11:59:54;4.67;;;3.75;;
23270;SDS011;11804;51.118;17.058;2023-06-10T12:02:21;3.87;;;3.47;;
23270;SDS011;11804;51.118;17.058;2023-06-10T12:04:49;4.47;;;3.20;;
23270;SDS011;11804;51.118;17.058;2023-06-10T12:07:17;4.42;;;3.45;;
23270;SDS011;11804;51.118;17.058;2023-06-10T12:09:46;3.98;;;3.40;;
23270;SDS011;11804;51.118;17.058;2023-06-10T12:12:16;3.90;;;3.47;;
23270;SDS011;11804;51.118;17.058;2023-06-10T12:14:52;5.50;;;4.03;;
23270;SDS011;11804;51.118;17.058;2023-06-10T12:20:06;5.45;;;4.25;;
23270;SDS011;11804;51.118;17.058;2023-06-10T12:22:43;5.10;;;3.60;;
23270;SDS011;11804;51.118;17.058;2023-06-10T12:25:08;5.25;;;3.60;;
23270;SDS011;11804;51.118;17.058;2023-06-10T12:27:37;4.20;;;3.55;;
23270;SDS011;11804;51.118;17.058;2023-06-10T12:30:07;4.53;;;3.87;;
23270;SDS011;11804;51.118;17.058;2023-06-10T12:32:39;4.62;;;3.83;;
23270;SDS011;11804;51.118;17.058;2023-06-10T12:35:09;4.80;;;3.85;;
23270;SDS011;11804;51.118;17.058;2023-06-10T12:37:39;5.80;;;3.85;;
23270;SDS011;11804;51.118;17.058;2023-06-10T12:40:07;4.53;;;3.50;;
23270;SDS011;11804;51.118;17.058;2023-06-10T12:42:35;4.40;;;3.80;;
23270;SDS011;11804;51.118;17.058;2023-06-10T12:45:05;4.70;;;3.80;;
23270;SDS011;11804;51.118;17.058;2023-06-10T12:47:35;6.58;;;3.98;;
23270;SDS011;11804;51.118;17.058;2023-06-10T12:50:05;5.05;;;3.85;;
23270;SDS011;11804;51.118;17.058;2023-06-10T12:52:33;4.30;;;3.87;;
23270;SDS011;11804;51.118;17.058;2023-06-10T12:55:01;5.10;;;3.70;;
23270;SDS011;11804;51.118;17.058;2023-06-10T12:57:30;5.45;;;3.58;;
23270;SDS011;11804;51.118;17.058;2023-06-10T12:59:57;4.53;;;3.70;;
23270;SDS011;11804;51.118;17.058;2023-06-10T13:02:26;4.28;;;3.62;;
23270;SDS011;11804;51.118;17.058;2023-06-10T13:04:54;4.62;;;3.85;;
23270;SDS011;11804;51.118;17.058;2023-06-10T13:07:22;5.40;;;3.67;;
23270;SDS011;11804;51.118;17.058;2023-06-10T13:09:50;4.35;;;3.20;;
23270;SDS011;11804;51.118;17.058;2023-06-10T13:12:18;4.33;;;3.35;;
23270;SDS011;11804;51.118;17.058;2023-06-10T13:14:46;3.35;;;3.05;;
23270;SDS011;11804;51.118;17.058;2023-06-10T13:17:14;5.15;;;3.08;;
23270;SDS011;11804;51.118;17.058;2023-06-10T13:19:42;4.25;;;2.83;;
23270;SDS011;11804;51.118;17.058;2023-06-10T13:22:09;3.47;;;3.02;;
23270;SDS011;11804;51.118;17.058;2023-06-10T13:24:42;4.12;;;2.98;;
23270;SDS011;11804;51.118;17.058;2023-06-10T13:27:09;3.50;;;2.80;;
23270;SDS011;11804;51.118;17.058;2023-06-10T13:29:37;4.53;;;3.22;;
23270;SDS011;11804;51.118;17.058;2023-06-10T13:32:05;4.58;;;2.80;;
23270;SDS011;11804;51.118;17.058;2023-06-10T13:34:35;4.20;;;2.67;;
23270;SDS011;11804;51.118;17.058;2023-06-10T13:37:03;3.45;;;2.55;;
23270;SDS011;11804;51.118;17.058;2023-06-10T13:39:31;4.22;;;2.90;;
23270;SDS011;11804;51.118;17.058;2023-06-10T13:41:59;2.80;;;2.35;;
23270;SDS011;11804;51.118;17.058;2023-06-10T13:44:27;3.20;;;2.50;;
23270;SDS011;11804;51.118;17.058;2023-06-10T13:46:56;3.25;;;2.60;;
23270;SDS011;11804;51.118;17.058;2023-06-10T13:49:23;3.47;;;2.50;;
23270;SDS011;11804;51.118;17.058;2023-06-10T13:51:51;3.17;;;2.65;;
23270;SDS011;11804;51.118;17.058;2023-06-10T13:54:18;3.75;;;2.98;;
23270;SDS011;11804;51.118;17.058;2023-06-10T13:56:48;4.42;;;2.70;;
23270;SDS011;11804;51.118;17.058;2023-06-10T13:59:16;3.87;;;2.90;;
23270;SDS011;11804;51.118;17.058;2023-06-10T14:01:45;5.35;;;2.50;;
23270;SDS011;11804;51.118;17.058;2023-06-10T14:04:13;3.98;;;2.22;;
23270;SDS011;11804;51.118;17.058;2023-06-10T14:06:41;3.12;;;2.45;;
23270;SDS011;11804;51.118;17.058;2023-06-10T14:09:10;3.85;;;2.90;;
23270;SDS011;11804;51.118;17.058;2023-06-10T14:11:39;3.65;;;2.90;;
23270;SDS011;11804;51.118;17.058;2023-06-10T14:14:07;3.33;;;2.27;;
23270;SDS011;11804;51.118;17.058;2023-06-10T14:16:35;2.22;;;2.02;;
23270;SDS011;11804;51.118;17.058;2023-06-10T14:19:02;4.62;;;3.12;;
23270;SDS011;11804;51.118;17.058;2023-06-10T14:21:30;3.40;;;2.20;;
23270;SDS011;11804;51.118;17.058;2023-06-10T14:23:58;4.53;;;2.60;;
23270;SDS011;11804;51.118;17.058;2023-06-10T14:26:25;2.92;;;2.05;;
23270;SDS011;11804;51.118;17.058;2023-06-10T14:28:53;3.25;;;2.50;;
23270;SDS011;11804;51.118;17.058;2023-06-10T14:31:20;4.78;;;2.33;;
23270;SDS011;11804;51.118;17.058;2023-06-10T14:33:48;4.20;;;2.92;;
23270;SDS011;11804;51.118;17.058;2023-06-10T14:36:15;5.65;;;2.90;;
23270;SDS011;11804;51.118;17.058;2023-06-10T14:38:45;4.25;;;2.30;;
23270;SDS011;11804;51.118;17.058;2023-06-10T14:41:13;4.15;;;2.22;;
23270;SDS011;11804;51.118;17.058;2023-06-10T14:43:40;2.58;;;2.37;;
23270;SDS011;11804;51.118;17.058;2023-06-10T14:46:10;4.53;;;2.35;;
23270;SDS011;11804;51.118;17.058;2023-06-10T14:48:37;3.30;;;2.12;;
23270;SDS011;11804;51.118;17.058;2023-06-10T14:51:05;2.80;;;2.42;;
23270;SDS011;11804;51.118;17.058;2023-06-10T14:53:32;3.05;;;2.25;;